TFM - Tactical Decision Aid (Experimental) INFO Settings
ID: Runway Winds: CIG/VIS Threshold: METAR Board: Map:

KHKS - Jackson/Hawkins Fld

Updated at: 1805 UTC 18 Feb 2018
Latest TAF at: 1720 UTC 18 Feb 2018

TAF Board

Time1753Z18/19Z18/20Z18/21Z18/22Z18/23Z19/00Z19/01Z19/02Z19/03Z19/04Z19/05Z19/06Z19/07Z
TypeOBSPRVLPRVLPRVLPRVLPRVLPRVLPRVLPRVLPRVLPRVLPRVLPRVLPRVL
VIS10>6>6>6>6>6>6>6>6>6>6>6>6>6
CIG7771515151515151525252525
CoverOVCOVCOVCOVCOVCOVCOVCOVCOVCOVCBKNBKNBKNBKN
FltCatIFRIFRIFRMVFRMVFRMVFRMVFRMVFRMVFRMVFRMVFRMVFRMVFRMVFR
WX----------------------------
WDir110110110160160160160160160160150150150150
WSpd77766666667777
WGst----------------------------
TAF
KHKS 181720Z 1818/1918 11007KT P6SM OVC007
  FM182100 16006KT P6SM OVC015
  FM190400 15007KT P6SM BKN025
  FM191000 16005KT 5SM BR OVC007
  FM191500 17014G20KT P6SM OVC020


METAR Board

Time18/07Z 18/08Z 18/09Z 18/10Z 18/11Z 18/12Z 18/13Z 18/14Z 18/15Z 18/16Z 18/17Z 18/18Z
VIS10 10 10 4 10 10 10 10 10 10 5 10
CIG6 5 4 4 6 6 6 6 6 7 7 7
CoverOVCOVCOVCOVCOVCOVCOVCOVCOVCOVCOVCOVC
FltCatIFRIFRLIFRLIFRIFRIFRIFRIFRIFRIFRIFRIFR
WX-------RA BR------------BR--
WDir40504070400608010090110110
WSpd5 4 5 4 4 3 4 6 7 5 7 7
WGst-- -- -- -- -- -- -- -- -- -- -- --
METAR
KHKS 180653Z AUTO 04005KT 10SM OVC006 10/09 A3020 RMK AO2 SLP221 T01000094
KHKS 180753Z AUTO 05004KT 10SM OVC005 10/09 A3020 RMK AO2 SLP219 T01000094
KHKS 180903Z AUTO 04005KT 10SM OVC004 09/09 A3020 RMK AO2 T00940094
KHKS 180953Z AUTO 07004KT 4SM -RA BR OVC004 09/09 A3020 RMK AO2 RAB44 SLP218 P0001 T00940094
KHKS 181053Z AUTO 04004KT 10SM OVC006 10/09 A3021 RMK AO2 RAE08 SLP225 P0000 T01000094
KHKS 181153Z AUTO VRB03KT 10SM OVC006 09/09 A3021 RMK AO2 RAB1059E20 SLP226 P0001 60002 70011 T00940094 10106 20094 53003
KHKS 181253Z 06004KT 10SM OVC006 09/09 A3022 RMK AO2 RAB15E44 SLP230 P0001 T00940089
KHKS 181353Z 08006KT 10SM OVC006 10/09 A3023 RMK AO2 SLP232 T01000094
KHKS 181453Z 10007KT 10SM OVC006 10/09 A3024 RMK AO2 SLP234 60001 T01000094 51007
KHKS 181553Z 09005KT 10SM OVC007 11/11 A3024 RMK AO2 SLP234 T01110106
KHKS 181653Z 11007KT 5SM BR OVC007 11/11 A3024 RMK AO2 SLP234 T01110106
KHKS 181753Z 11007KT 10SM OVC007 13/12 A3021 RMK AO2 SLP225 60001 T01280117 10128 20094 58008

TAF/METAR Board Legend

Potential Impact
  None Marginal Slight Moderate High
Visibility (sm) >5 3≤X≤5 2≤X<3 0.5≤X<2 <0.5
Ceiling (100 ft) >30 10≤X≤30 6≤X<10 2≤X<6 <2
Wind Speed (kt) <10 10≤X<20 20≤X<30 ≥30
Wind Gust (kt) <15 15≤X<25 25≤X<35 ≥35
Weather No Wx Reported VCTS -TS,-FZRA TS,FZRA +TS,+FZRA